Observations for ALGHERO, Italy (LIEA)

LIEA 260520Z VRB01KT CAVOK 20/19 Q1016  
LIEA 260450Z VRB02KT CAVOK 20/19 Q1016  
LIEA 260420Z 06005KT CAVOK 20/19 Q1016  
LIEA 260350Z 05003KT CAVOK 20/20 Q1015  
LIEA 260320Z 04003KT CAVOK 21/20 Q1015  
LIEA 260250Z VRB01KT CAVOK 21/20 Q1016  
LIEA 260220Z VRB02KT CAVOK 21/20 Q1016  
LIEA 260150Z 08002KT CAVOK 22/21 Q1016  
LIEA 260120Z 08003KT CAVOK 22/21 Q1016  
LIEA 260050Z 08004KT CAVOK 22/21 Q1016  
LIEA 252350Z 07003KT 040V120 CAVOK 23/22 Q1016  
LIEA 252320Z 06003KT CAVOK 23/22 Q1016  
LIEA 252250Z 06003KT CAVOK 23/22 Q1016  
LIEA 252220Z 06004KT CAVOK 23/22 Q1016  
LIEA 252150Z 07005KT CAVOK 24/22 Q1016  
LIEA 252120Z 07004KT CAVOK 24/22 Q1016  
LIEA 252050Z 05003KT 020V080 CAVOK 24/22 Q1016  
LIEA 252020Z 06004KT CAVOK 25/22 Q1016  
LIEA 251950Z 06004KT CAVOK 25/22 Q1016  
LIEA 251920Z 07006KT CAVOK 25/22 Q1016  
LIEA 251850Z 07008KT CAVOK 26/22 Q1016  
LIEA 251820Z 06008KT CAVOK 26/22 Q1016  
LIEA 251750Z 07010KT CAVOK 27/22 Q1015  
LIEA 251720Z 06009KT 020V080 CAVOK 28/21 Q1015  
LIEA 251650Z 06010KT CAVOK 29/20 Q1015  
LIEA 251620Z 06012KT CAVOK 29/20 Q1015  
LIEA 251550Z 06010KT 020V090 CAVOK 31/20 Q1015  
LIEA 251520Z 02008KT 340V070 CAVOK 31/20 Q1015  
LIEA 251450Z 03008KT CAVOK 31/21 Q1015  
LIEA 251420Z 06008KT 9999 FEW030 31/20 Q1015
LIEA 251350Z 04007KT 350V080 CAVOK 32/17 Q1015  
LIEA 251320Z 07007KT 030V100 CAVOK 32/17 Q1015  
LIEA 251250Z 06008KT 350V110 9999 FEW030 32/18 Q1015
LIEA 251220Z 07008KT 020V120 9999 FEW030 32/18 Q1015
LIEA 251150Z 08009KT 040V120 9999 FEW030 31/17 Q1016
LIEA 251120Z 06009KT 010V100 9999 FEW030 31/18 Q1016
LIEA 251050Z 05008KT 350V100 9999 FEW030 31/18 Q1016
LIEA 251020Z 04006KT 330V110 CAVOK 31/19 Q1016  
LIEA 250950Z 07007KT 010V110 9999 FEW030 30/19 Q1017
LIEA 250920Z 08006KT 040V140 9999 FEW030 30/19 Q1017
LIEA 250850Z 07006KT 020V110 CAVOK 30/19 Q1017  
LIEA 250820Z VRB02KT CAVOK 28/19 Q1017  
LIEA 250750Z VRB02KT CAVOK 27/19 Q1016  
LIEA 250720Z VRB01KT CAVOK 26/20 Q1016  
LIEA 250650Z VRB01KT CAVOK 24/20 Q1016  
LIEA 250620Z 06002KT CAVOK 21/20 Q1016  
LIEA 250550Z 09002KT CAVOK 21/20 Q1016  
LIEA 250520Z 04002KT CAVOK 20/19 Q1016  
LIEA 250450Z 02003KT CAVOK 20/19 Q1016